sensor_id;sensor_type;location;lat;lon;timestamp;pressure;altitude;pressure_sealevel;temperature;humidity
62544;BME280;48597;49.030;1.822;2023-02-11T00:01:06;102948.75;;;19.78;34.49
62544;BME280;48597;49.030;1.822;2023-02-11T00:03:32;102946.69;;;19.75;34.52
62544;BME280;48597;49.030;1.822;2023-02-11T00:05:58;102938.09;;;19.75;34.51
62544;BME280;48597;49.030;1.822;2023-02-11T00:08:23;102938.94;;;19.76;34.51
62544;BME280;48597;49.030;1.822;2023-02-11T00:10:55;102944.66;;;19.76;34.47
62544;BME280;48597;49.030;1.822;2023-02-11T00:13:21;102937.72;;;19.77;34.43
62544;BME280;48597;49.030;1.822;2023-02-11T00:15:46;102940.56;;;19.77;34.45
62544;BME280;48597;49.030;1.822;2023-02-11T00:18:13;102935.66;;;19.77;34.42
62544;BME280;48597;49.030;1.822;2023-02-11T00:20:38;102938.94;;;19.76;34.29
62544;BME280;48597;49.030;1.822;2023-02-11T00:23:04;102933.63;;;19.78;34.23
62544;BME280;48597;49.030;1.822;2023-02-11T00:25:29;102933.63;;;19.78;34.15
62544;BME280;48597;49.030;1.822;2023-02-11T00:27:54;102925.03;;;19.78;34.21
62544;BME280;48597;49.030;1.822;2023-02-11T00:30:19;102934.06;;;19.80;34.27
62544;BME280;48597;49.030;1.822;2023-02-11T00:32:46;102936.09;;;19.79;34.17
62544;BME280;48597;49.030;1.822;2023-02-11T00:35:11;102925.06;;;19.81;34.23
62544;BME280;48597;49.030;1.822;2023-02-11T00:37:37;102925.91;;;19.82;34.13
62544;BME280;48597;49.030;1.822;2023-02-11T00:40:02;102925.91;;;19.82;34.10
62544;BME280;48597;49.030;1.822;2023-02-11T00:42:28;102921.41;;;19.88;34.13
62544;BME280;48597;49.030;1.822;2023-02-11T00:44:53;102924.66;;;19.86;34.00
62544;BME280;48597;49.030;1.822;2023-02-11T00:47:18;102918.56;;;19.88;34.04
62544;BME280;48597;49.030;1.822;2023-02-11T00:49:43;102920.63;;;19.91;34.08
62544;BME280;48597;49.030;1.822;2023-02-11T00:52:09;102910.41;;;19.93;33.89
62544;BME280;48597;49.030;1.822;2023-02-11T00:54:34;102912.06;;;19.94;33.91
62544;BME280;48597;49.030;1.822;2023-02-11T00:56:59;102911.22;;;19.94;33.86
62544;BME280;48597;49.030;1.822;2023-02-11T00:59:25;102909.63;;;19.96;33.99
62544;BME280;48597;49.030;1.822;2023-02-11T01:01:52;102910.44;;;19.97;34.05
62544;BME280;48597;49.030;1.822;2023-02-11T01:04:17;102914.94;;;19.98;33.93
62544;BME280;48597;49.030;1.822;2023-02-11T01:06:42;102914.09;;;20.01;33.89
62544;BME280;48597;49.030;1.822;2023-02-11T01:09:07;102912.88;;;20.02;33.99
62544;BME280;48597;49.030;1.822;2023-02-11T01:11:33;102914.97;;;20.05;33.76
62544;BME280;48597;49.030;1.822;2023-02-11T01:13:58;102909.63;;;20.04;33.80
62544;BME280;48597;49.030;1.822;2023-02-11T01:16:23;102915.78;;;20.06;33.84
62544;BME280;48597;49.030;1.822;2023-02-11T01:18:48;102912.50;;;20.04;33.80
62544;BME280;48597;49.030;1.822;2023-02-11T01:21:14;102917.41;;;20.03;33.62
62544;BME280;48597;49.030;1.822;2023-02-11T01:23:40;102920.25;;;20.03;33.64
62544;BME280;48597;49.030;1.822;2023-02-11T01:26:05;102916.59;;;19.99;33.66
62544;BME280;48597;49.030;1.822;2023-02-11T01:28:30;102921.06;;;20.00;33.81
62544;BME280;48597;49.030;1.822;2023-02-11T01:30:56;102919.00;;;20.01;33.74
62544;BME280;48597;49.030;1.822;2023-02-11T01:33:22;102907.16;;;20.02;33.61
62544;BME280;48597;49.030;1.822;2023-02-11T01:35:47;102911.66;;;19.99;33.61
62544;BME280;48597;49.030;1.822;2023-02-11T01:38:14;102918.63;;;20.02;33.70
62544;BME280;48597;49.030;1.822;2023-02-11T01:40:39;102913.72;;;20.03;33.63
62544;BME280;48597;49.030;1.822;2023-02-11T01:43:05;102911.25;;;20.01;33.62
62544;BME280;48597;49.030;1.822;2023-02-11T01:48:19;102912.09;;;20.05;33.53
62544;BME280;48597;49.030;1.822;2023-02-11T01:50:46;102922.72;;;20.05;33.55
62544;BME280;48597;49.030;1.822;2023-02-11T01:53:13;102917.81;;;20.05;33.51
62544;BME280;48597;49.030;1.822;2023-02-11T01:55:58;102918.66;;;20.09;33.44
62544;BME280;48597;49.030;1.822;2023-02-11T01:58:43;102915.38;;;20.14;33.33
62544;BME280;48597;49.030;1.822;2023-02-11T02:01:10;102914.56;;;20.10;33.55
62544;BME280;48597;49.030;1.822;2023-02-11T02:03:36;102912.94;;;20.13;33.27
62544;BME280;48597;49.030;1.822;2023-02-11T02:08:53;102906.00;;;20.10;33.34
62544;BME280;48597;49.030;1.822;2023-02-11T02:11:19;102908.47;;;20.22;33.38
62544;BME280;48597;49.030;1.822;2023-02-11T02:13:45;102908.50;;;20.29;33.07
62544;BME280;48597;49.030;1.822;2023-02-11T02:16:11;102912.19;;;20.30;33.09
62544;BME280;48597;49.030;1.822;2023-02-11T02:23:48;102892.59;;;20.36;32.89
62544;BME280;48597;49.030;1.822;2023-02-11T02:34:12;102884.75;;;20.29;32.96
62544;BME280;48597;49.030;1.822;2023-02-11T02:36:42;102875.75;;;20.27;32.98
62544;BME280;48597;49.030;1.822;2023-02-11T02:42:14;102875.75;;;20.23;33.07
62544;BME280;48597;49.030;1.822;2023-02-11T02:44:40;102871.25;;;20.22;33.03
62544;BME280;48597;49.030;1.822;2023-02-11T02:47:05;102871.66;;;20.21;32.97
62544;BME280;48597;49.030;1.822;2023-02-11T02:49:31;102867.16;;;20.20;32.85
62544;BME280;48597;49.030;1.822;2023-02-11T02:57:17;102872.09;;;20.33;32.79
62544;BME280;48597;49.030;1.822;2023-02-11T03:02:25;102859.78;;;20.26;32.92
62544;BME280;48597;49.030;1.822;2023-02-11T03:07:28;102863.53;;;20.41;32.74
62544;BME280;48597;49.030;1.822;2023-02-11T03:10:01;102857.81;;;20.44;32.58
62544;BME280;48597;49.030;1.822;2023-02-11T03:12:30;102852.06;;;20.41;32.58
62544;BME280;48597;49.030;1.822;2023-02-11T03:14:57;102859.06;;;20.47;32.59
62544;BME280;48597;49.030;1.822;2023-02-11T03:17:24;102852.91;;;20.45;32.44
62544;BME280;48597;49.030;1.822;2023-02-11T03:19:50;102853.75;;;20.49;32.42
62544;BME280;48597;49.030;1.822;2023-02-11T03:22:17;102847.59;;;20.50;32.60
62544;BME280;48597;49.030;1.822;2023-02-11T03:24:44;102855.38;;;20.53;32.47
62544;BME280;48597;49.030;1.822;2023-02-11T03:30:26;102848.81;;;20.56;32.49
62544;BME280;48597;49.030;1.822;2023-02-11T03:32:42;102845.97;;;20.56;32.49
62544;BME280;48597;49.030;1.822;2023-02-11T03:35:14;102845.56;;;20.58;32.25
62544;BME280;48597;49.030;1.822;2023-02-11T03:37:51;102845.56;;;20.61;32.24
62544;BME280;48597;49.030;1.822;2023-02-11T03:40:21;102851.28;;;20.65;32.28
62544;BME280;48597;49.030;1.822;2023-02-11T03:42:48;102850.88;;;20.56;32.30
62544;BME280;48597;49.030;1.822;2023-02-11T03:45:16;102841.03;;;20.53;32.51
62544;BME280;48597;49.030;1.822;2023-02-11T03:47:45;102843.50;;;20.55;32.50
62544;BME280;48597;49.030;1.822;2023-02-11T03:50:12;102854.94;;;20.51;32.47
62544;BME280;48597;49.030;1.822;2023-02-11T03:52:39;102855.38;;;20.50;32.54
62544;BME280;48597;49.030;1.822;2023-02-11T03:55:08;102845.16;;;20.49;32.44
62544;BME280;48597;49.030;1.822;2023-02-11T03:57:36;102845.97;;;20.46;32.40
62544;BME280;48597;49.030;1.822;2023-02-11T04:00:02;102849.22;;;20.41;32.50
62544;BME280;48597;49.030;1.822;2023-02-11T04:02:32;102855.34;;;20.43;32.48
62544;BME280;48597;49.030;1.822;2023-02-11T04:04:58;102856.97;;;20.40;32.32
62544;BME280;48597;49.030;1.822;2023-02-11T04:07:24;102852.91;;;20.38;32.45
62544;BME280;48597;49.030;1.822;2023-02-11T04:09:49;102850.06;;;20.38;32.45
62544;BME280;48597;49.030;1.822;2023-02-11T04:12:14;102854.97;;;20.37;32.36
62544;BME280;48597;49.030;1.822;2023-02-11T04:14:40;102841.03;;;20.39;32.53
62544;BME280;48597;49.030;1.822;2023-02-11T04:17:05;102842.66;;;20.40;32.40
62544;BME280;48597;49.030;1.822;2023-02-11T04:19:30;102850.44;;;20.40;32.38
62544;BME280;48597;49.030;1.822;2023-02-11T04:21:56;102851.25;;;20.40;32.40
62544;BME280;48597;49.030;1.822;2023-02-11T04:24:21;102851.28;;;20.44;32.27
62544;BME280;48597;49.030;1.822;2023-02-11T04:26:46;102848.41;;;20.40;32.29
62544;BME280;48597;49.030;1.822;2023-02-11T04:29:12;102837.75;;;20.41;32.16
62544;BME280;48597;49.030;1.822;2023-02-11T04:31:37;102844.72;;;20.43;32.32
62544;BME280;48597;49.030;1.822;2023-02-11T04:34:02;102846.78;;;20.50;32.22
62544;BME280;48597;49.030;1.822;2023-02-11T04:36:27;102852.50;;;20.53;32.18
62544;BME280;48597;49.030;1.822;2023-02-11T04:38:53;102852.09;;;20.58;32.08
62544;BME280;48597;49.030;1.822;2023-02-11T04:41:18;102854.53;;;20.53;32.09
62544;BME280;48597;49.030;1.822;2023-02-11T04:43:43;102850.47;;;20.57;31.94
62544;BME280;48597;49.030;1.822;2023-02-11T04:46:08;102859.88;;;20.65;32.04
62544;BME280;48597;49.030;1.822;2023-02-11T04:48:34;102864.78;;;20.64;32.01
62544;BME280;48597;49.030;1.822;2023-02-11T04:50:59;102868.06;;;20.66;31.92
62544;BME280;48597;49.030;1.822;2023-02-11T04:53:24;102868.47;;;20.58;31.91
62544;BME280;48597;49.030;1.822;2023-02-11T04:55:50;102864.78;;;20.57;32.01
62544;BME280;48597;49.030;1.822;2023-02-11T04:58:16;102865.59;;;20.58;31.88
62544;BME280;48597;49.030;1.822;2023-02-11T05:00:41;102856.19;;;20.57;31.87
62544;BME280;48597;49.030;1.822;2023-02-11T05:03:06;102860.69;;;20.55;31.84
62544;BME280;48597;49.030;1.822;2023-02-11T05:05:31;102856.59;;;20.52;32.05
62544;BME280;48597;49.030;1.822;2023-02-11T05:07:57;102855.38;;;20.50;31.99
62544;BME280;48597;49.030;1.822;2023-02-11T05:10:22;102857.84;;;20.48;31.90
62544;BME280;48597;49.030;1.822;2023-02-11T05:12:47;102855.34;;;20.43;31.85
62544;BME280;48597;49.030;1.822;2023-02-11T05:15:13;102853.31;;;20.43;32.00
62544;BME280;48597;49.030;1.822;2023-02-11T05:17:38;102853.31;;;20.43;31.94
62544;BME280;48597;49.030;1.822;2023-02-11T05:20:04;102851.28;;;20.44;31.99
62544;BME280;48597;49.030;1.822;2023-02-11T05:22:29;102847.56;;;20.40;32.00
62544;BME280;48597;49.030;1.822;2023-02-11T05:24:54;102858.63;;;20.41;31.91
62544;BME280;48597;49.030;1.822;2023-02-11T05:27:19;102861.91;;;20.40;32.01
62544;BME280;48597;49.030;1.822;2023-02-11T05:29:45;102852.47;;;20.39;32.03
62544;BME280;48597;49.030;1.822;2023-02-11T05:32:10;102850.88;;;20.38;32.10
62544;BME280;48597;49.030;1.822;2023-02-11T05:34:36;102849.63;;;20.43;32.04
62544;BME280;48597;49.030;1.822;2023-02-11T05:37:01;102848.81;;;20.42;32.03
62544;BME280;48597;49.030;1.822;2023-02-11T05:39:26;102848.00;;;20.42;32.01
62544;BME280;48597;49.030;1.822;2023-02-11T05:41:52;102839.81;;;20.44;31.77
62544;BME280;48597;49.030;1.822;2023-02-11T05:44:17;102844.72;;;20.43;32.00
62544;BME280;48597;49.030;1.822;2023-02-11T05:46:42;102841.03;;;20.46;31.92
62544;BME280;48597;49.030;1.822;2023-02-11T05:49:07;102841.03;;;20.46;31.96
62544;BME280;48597;49.030;1.822;2023-02-11T05:51:32;102841.88;;;20.47;31.79
62544;BME280;48597;49.030;1.822;2023-02-11T05:53:58;102841.88;;;20.47;31.95
62544;BME280;48597;49.030;1.822;2023-02-11T05:56:24;102835.34;;;20.50;31.74
62544;BME280;48597;49.030;1.822;2023-02-11T05:58:50;102827.53;;;20.54;31.79
62544;BME280;48597;49.030;1.822;2023-02-11T06:01:15;102832.03;;;20.51;31.61
62544;BME280;48597;49.030;1.822;2023-02-11T06:03:40;102830.00;;;20.55;31.73
62544;BME280;48597;49.030;1.822;2023-02-11T06:06:10;102834.09;;;20.54;31.64
62544;BME280;48597;49.030;1.822;2023-02-11T06:08:35;102841.44;;;20.52;31.87
62544;BME280;48597;49.030;1.822;2023-02-11T06:11:00;102837.34;;;20.53;31.65
62544;BME280;48597;49.030;1.822;2023-02-11T06:13:26;102839.41;;;20.49;31.72
62544;BME280;48597;49.030;1.822;2023-02-11T06:15:55;102841.88;;;20.47;31.66
62544;BME280;48597;49.030;1.822;2023-02-11T06:18:20;102836.13;;;20.43;31.69
62544;BME280;48597;49.030;1.822;2023-02-11T06:20:45;102833.66;;;20.42;31.78
62544;BME280;48597;49.030;1.822;2023-02-11T06:23:10;102838.97;;;20.40;31.84
62544;BME280;48597;49.030;1.822;2023-02-11T06:25:36;102836.13;;;20.40;31.70
62544;BME280;48597;49.030;1.822;2023-02-11T06:28:01;102834.47;;;20.39;31.87
62544;BME280;48597;49.030;1.822;2023-02-11T06:30:26;102833.63;;;20.34;31.72
62544;BME280;48597;49.030;1.822;2023-02-11T06:32:51;102835.69;;;20.34;31.71
62544;BME280;48597;49.030;1.822;2023-02-11T06:35:17;102834.03;;;20.29;31.85
62544;BME280;48597;49.030;1.822;2023-02-11T06:37:42;102839.75;;;20.26;31.80
62544;BME280;48597;49.030;1.822;2023-02-11T06:40:07;102842.63;;;20.22;31.75
62544;BME280;48597;49.030;1.822;2023-02-11T06:42:33;102842.19;;;20.17;31.74
62544;BME280;48597;49.030;1.822;2023-02-11T06:45:00;102852.41;;;20.14;31.85
62544;BME280;48597;49.030;1.822;2023-02-11T06:47:25;102858.97;;;20.11;31.53
62544;BME280;48597;49.030;1.822;2023-02-11T06:49:50;102857.72;;;20.09;31.74
62544;BME280;48597;49.030;1.822;2023-02-11T06:52:15;102866.72;;;20.07;31.83
62544;BME280;48597;49.030;1.822;2023-02-11T06:54:41;102872.84;;;20.06;31.80
62544;BME280;48597;49.030;1.822;2023-02-11T06:57:06;102873.25;;;20.08;31.75
62544;BME280;48597;49.030;1.822;2023-02-11T06:59:32;102868.34;;;20.08;31.82
62544;BME280;48597;49.030;1.822;2023-02-11T07:01:58;102872.84;;;20.09;31.82
62544;BME280;48597;49.030;1.822;2023-02-11T07:04:23;102876.53;;;20.10;31.75
62544;BME280;48597;49.030;1.822;2023-02-11T07:06:48;102870.41;;;20.11;31.90
62544;BME280;48597;49.030;1.822;2023-02-11T07:09:13;102876.53;;;20.10;31.70
62544;BME280;48597;49.030;1.822;2023-02-11T07:11:40;102876.13;;;20.08;31.64
62544;BME280;48597;49.030;1.822;2023-02-11T07:14:06;102883.50;;;20.09;31.84
62544;BME280;48597;49.030;1.822;2023-02-11T07:16:35;102883.88;;;20.07;31.86
62544;BME280;48597;49.030;1.822;2023-02-11T07:19:00;102888.38;;;20.08;31.71
62544;BME280;48597;49.030;1.822;2023-02-11T07:21:25;102893.28;;;20.08;31.70
62544;BME280;48597;49.030;1.822;2023-02-11T07:23:51;102898.63;;;20.09;31.72
62544;BME280;48597;49.030;1.822;2023-02-11T07:26:18;102892.50;;;20.11;31.70
62544;BME280;48597;49.030;1.822;2023-02-11T07:28:44;102903.94;;;20.11;31.61
62544;BME280;48597;49.030;1.822;2023-02-11T07:31:17;102899.88;;;20.12;31.57
62544;BME280;48597;49.030;1.822;2023-02-11T07:33:43;102893.31;;;20.11;31.56
62544;BME280;48597;49.030;1.822;2023-02-11T07:36:10;102890.84;;;20.13;31.64
62544;BME280;48597;49.030;1.822;2023-02-11T07:38:35;102903.53;;;20.12;31.60
62544;BME280;48597;49.030;1.822;2023-02-11T07:41:02;102899.88;;;20.12;31.71
62544;BME280;48597;49.030;1.822;2023-02-11T07:43:27;102898.63;;;20.09;31.60
62544;BME280;48597;49.030;1.822;2023-02-11T07:45:53;102902.31;;;20.10;31.69
62544;BME280;48597;49.030;1.822;2023-02-11T07:48:18;102897.81;;;20.09;31.67
62544;BME280;48597;49.030;1.822;2023-02-11T07:50:44;102901.06;;;20.07;31.59
62544;BME280;48597;49.030;1.822;2023-02-11T07:53:09;102903.09;;;20.07;31.64
62544;BME280;48597;49.030;1.822;2023-02-11T07:55:34;102899.41;;;20.06;31.51
62544;BME280;48597;49.030;1.822;2023-02-11T07:57:59;102889.59;;;20.04;31.60
62544;BME280;48597;49.030;1.822;2023-02-11T08:00:25;102887.13;;;20.02;31.63
62544;BME280;48597;49.030;1.822;2023-02-11T08:02:50;102901.03;;;20.04;31.73
62544;BME280;48597;49.030;1.822;2023-02-11T08:05:15;102901.44;;;20.02;31.64
62544;BME280;48597;49.030;1.822;2023-02-11T08:07:40;102895.72;;;20.02;31.98
62544;BME280;48597;49.030;1.822;2023-02-11T08:10:06;102894.50;;;20.03;31.75
62544;BME280;48597;49.030;1.822;2023-02-11T08:12:31;102892.44;;;20.04;31.83
62544;BME280;48597;49.030;1.822;2023-02-11T08:14:56;102896.13;;;20.04;31.88
62544;BME280;48597;49.030;1.822;2023-02-11T08:17:21;102896.97;;;20.08;31.80
62544;BME280;48597;49.030;1.822;2023-02-11T08:19:47;102891.25;;;20.15;31.54
62544;BME280;48597;49.030;1.822;2023-02-11T08:22:12;102894.13;;;20.15;31.68
62544;BME280;48597;49.030;1.822;2023-02-11T08:24:37;102890.47;;;20.18;31.59
62544;BME280;48597;49.030;1.822;2023-02-11T08:27:02;102900.72;;;20.23;31.43
62544;BME280;48597;49.030;1.822;2023-02-11T08:29:28;102900.72;;;20.23;31.54
62544;BME280;48597;49.030;1.822;2023-02-11T08:31:54;102902.34;;;20.27;31.56
62544;BME280;48597;49.030;1.822;2023-02-11T08:34:19;102899.50;;;20.31;31.50
62544;BME280;48597;49.030;1.822;2023-02-11T08:36:45;102895.88;;;20.38;31.22
62544;BME280;48597;49.030;1.822;2023-02-11T08:39:12;102895.81;;;20.34;31.45
62544;BME280;48597;49.030;1.822;2023-02-11T08:41:37;102897.91;;;20.37;31.32
62544;BME280;48597;49.030;1.822;2023-02-11T08:44:02;102908.50;;;20.33;31.45
62544;BME280;48597;49.030;1.822;2023-02-11T08:46:28;102903.19;;;20.24;31.53
62544;BME280;48597;49.030;1.822;2023-02-11T08:48:53;102906.44;;;20.23;31.89
62544;BME280;48597;49.030;1.822;2023-02-11T08:51:20;102906.44;;;20.23;32.01
62544;BME280;48597;49.030;1.822;2023-02-11T08:53:45;102895.78;;;20.20;32.15
62544;BME280;48597;49.030;1.822;2023-02-11T08:56:11;102904.38;;;20.20;32.27
62544;BME280;48597;49.030;1.822;2023-02-11T08:58:36;102907.25;;;20.20;32.22
62544;BME280;48597;49.030;1.822;2023-02-11T09:01:07;102907.22;;;20.16;32.29
62544;BME280;48597;49.030;1.822;2023-02-11T09:03:32;102892.09;;;20.16;32.50
62544;BME280;48597;49.030;1.822;2023-02-11T09:05:58;102891.25;;;20.15;32.30
62544;BME280;48597;49.030;1.822;2023-02-11T09:08:23;102892.50;;;20.18;32.40
62544;BME280;48597;49.030;1.822;2023-02-11T09:10:48;102897.00;;;20.15;32.41
62544;BME280;48597;49.030;1.822;2023-02-11T09:13:13;102897.81;;;20.16;32.46
62544;BME280;48597;49.030;1.822;2023-02-11T09:15:40;102893.72;;;20.13;32.44
62544;BME280;48597;49.030;1.822;2023-02-11T09:18:08;102890.84;;;20.13;32.38
62544;BME280;48597;49.030;1.822;2023-02-11T09:20:33;102900.25;;;20.14;32.48
62544;BME280;48597;49.030;1.822;2023-02-11T09:22:59;102903.13;;;20.14;32.42
62544;BME280;48597;49.030;1.822;2023-02-11T09:25:24;102905.16;;;20.13;32.51
62544;BME280;48597;49.030;1.822;2023-02-11T09:27:49;102911.31;;;20.15;32.45
62544;BME280;48597;49.030;1.822;2023-02-11T09:30:16;102917.44;;;20.14;32.59
62544;BME280;48597;49.030;1.822;2023-02-11T09:32:41;102921.94;;;20.15;32.50
62544;BME280;48597;49.030;1.822;2023-02-11T09:35:07;102917.44;;;20.17;32.63
62544;BME280;48597;49.030;1.822;2023-02-11T09:37:32;102917.06;;;20.19;32.58
62544;BME280;48597;49.030;1.822;2023-02-11T09:39:57;102920.28;;;20.14;32.74
62544;BME280;48597;49.030;1.822;2023-02-11T09:44:54;102929.28;;;20.09;33.19
62544;BME280;48597;49.030;1.822;2023-02-11T09:47:29;102925.59;;;20.08;33.25
62544;BME280;48597;49.030;1.822;2023-02-11T09:49:57;102921.09;;;20.07;33.43
62544;BME280;48597;49.030;1.822;2023-02-11T09:55:03;102931.72;;;20.07;33.61
62544;BME280;48597;49.030;1.822;2023-02-11T09:57:33;102944.00;;;20.07;33.77
62544;BME280;48597;49.030;1.822;2023-02-11T09:59:59;102939.50;;;20.06;33.75
62544;BME280;48597;49.030;1.822;2023-02-11T10:02:34;102932.94;;;20.06;34.17
62544;BME280;48597;49.030;1.822;2023-02-11T10:15:20;102949.69;;;20.00;34.08
62544;BME280;48597;49.030;1.822;2023-02-11T10:22:58;102952.16;;;19.98;34.06
62544;BME280;48597;49.030;1.822;2023-02-11T10:25:47;102955.41;;;19.96;34.00
62544;BME280;48597;49.030;1.822;2023-02-11T10:28:14;102956.22;;;19.97;34.04
62544;BME280;48597;49.030;1.822;2023-02-11T10:33:18;102957.03;;;19.94;34.18
62544;BME280;48597;49.030;1.822;2023-02-11T10:35:46;102958.25;;;19.93;34.16
62544;BME280;48597;49.030;1.822;2023-02-11T10:38:12;102960.28;;;19.92;34.18
62544;BME280;48597;49.030;1.822;2023-02-11T10:40:38;102960.28;;;19.92;34.11
62544;BME280;48597;49.030;1.822;2023-02-11T10:43:04;102959.47;;;19.92;34.10
62544;BME280;48597;49.030;1.822;2023-02-11T10:45:35;102962.31;;;19.92;34.22
62544;BME280;48597;49.030;1.822;2023-02-11T10:48:04;102959.03;;;19.90;34.20
62544;BME280;48597;49.030;1.822;2023-02-11T10:50:31;102963.53;;;19.91;34.32
62544;BME280;48597;49.030;1.822;2023-02-11T10:53:18;102965.59;;;19.90;34.03
62544;BME280;48597;49.030;1.822;2023-02-11T10:55:54;102951.69;;;19.89;34.10
62544;BME280;48597;49.030;1.822;2023-02-11T11:00:54;102952.50;;;19.89;34.29
62544;BME280;48597;49.030;1.822;2023-02-11T11:03:22;102949.63;;;19.89;33.94
62544;BME280;48597;49.030;1.822;2023-02-11T11:05:57;102950.03;;;19.88;34.21
62544;BME280;48597;49.030;1.822;2023-02-11T11:11:11;102957.78;;;19.87;34.19
62544;BME280;48597;49.030;1.822;2023-02-11T11:13:39;102954.94;;;19.87;34.03
62544;BME280;48597;49.030;1.822;2023-02-11T11:18:36;102946.34;;;19.87;34.14
62544;BME280;48597;49.030;1.822;2023-02-11T11:21:05;102943.50;;;19.87;34.04
62544;BME280;48597;49.030;1.822;2023-02-11T11:23:31;102936.53;;;19.88;34.17
62544;BME280;48597;49.030;1.822;2023-02-11T11:26:09;102939.41;;;19.88;34.21
62544;BME280;48597;49.030;1.822;2023-02-11T11:28:36;102942.28;;;19.88;34.19
62544;BME280;48597;49.030;1.822;2023-02-11T11:31:03;102920.19;;;19.89;34.56
62544;BME280;48597;49.030;1.822;2023-02-11T11:33:30;102925.09;;;19.88;34.40
62544;BME280;48597;49.030;1.822;2023-02-11T11:36:01;102925.91;;;19.89;34.30
62544;BME280;48597;49.030;1.822;2023-02-11T11:38:27;102911.59;;;19.89;34.47
62544;BME280;48597;49.030;1.822;2023-02-11T11:41:14;102910.38;;;19.90;34.85
62544;BME280;48597;49.030;1.822;2023-02-11T11:43:39;102914.06;;;19.90;34.69
62544;BME280;48597;49.030;1.822;2023-02-11T11:46:04;102914.06;;;19.90;34.77
62544;BME280;48597;49.030;1.822;2023-02-11T11:48:38;102914.06;;;19.90;35.10
62544;BME280;48597;49.030;1.822;2023-02-11T11:51:07;102912.84;;;19.91;35.16
62544;BME280;48597;49.030;1.822;2023-02-11T11:53:45;102903.44;;;19.91;35.17
62544;BME280;48597;49.030;1.822;2023-02-11T11:56:15;102899.38;;;19.92;35.10
62544;BME280;48597;49.030;1.822;2023-02-11T11:58:42;102902.22;;;19.92;35.30
62544;BME280;48597;49.030;1.822;2023-02-11T12:06:40;102898.13;;;19.93;35.85
62544;BME280;48597;49.030;1.822;2023-02-11T12:29:39;102873.66;;;19.99;35.79
62544;BME280;48597;49.030;1.822;2023-02-11T12:32:15;102880.16;;;19.99;35.50
62544;BME280;48597;49.030;1.822;2023-02-11T12:34:48;102868.72;;;19.99;36.22
62544;BME280;48597;49.030;1.822;2023-02-11T12:39:46;102872.38;;;20.00;35.62
62544;BME280;48597;49.030;1.822;2023-02-11T12:45:21;102865.84;;;19.99;35.54
62544;BME280;48597;49.030;1.822;2023-02-11T12:55:55;102862.59;;;20.01;35.55
62544;BME280;48597;49.030;1.822;2023-02-11T12:58:23;102855.22;;;20.00;35.50
62544;BME280;48597;49.030;1.822;2023-02-11T13:00:54;102859.72;;;20.01;35.76
62544;BME280;48597;49.030;1.822;2023-02-11T13:03:22;102861.38;;;20.02;35.64
62544;BME280;48597;49.030;1.822;2023-02-11T13:05:54;102856.47;;;20.03;35.80
62544;BME280;48597;49.030;1.822;2023-02-11T13:08:31;102855.63;;;20.02;35.80
62544;BME280;48597;49.030;1.822;2023-02-11T13:11:07;102858.50;;;20.02;35.81
62544;BME280;48597;49.030;1.822;2023-02-11T13:13:45;102853.59;;;20.03;35.80
62544;BME280;48597;49.030;1.822;2023-02-11T13:19:13;102849.91;;;20.02;35.60
62544;BME280;48597;49.030;1.822;2023-02-11T13:24:21;102839.69;;;20.01;35.52
62544;BME280;48597;49.030;1.822;2023-02-11T13:32:12;102850.75;;;19.99;35.80
62544;BME280;48597;49.030;1.822;2023-02-11T13:37:23;102846.25;;;19.98;35.74
62544;BME280;48597;49.030;1.822;2023-02-11T13:40:00;102838.06;;;19.96;35.83
62544;BME280;48597;49.030;1.822;2023-02-11T13:42:26;102837.22;;;19.96;35.97
62544;BME280;48597;49.030;1.822;2023-02-11T13:44:51;102837.63;;;19.94;35.74
62544;BME280;48597;49.030;1.822;2023-02-11T13:47:24;102838.03;;;19.93;36.09
62544;BME280;48597;49.030;1.822;2023-02-11T13:49:50;102834.34;;;19.92;36.00
62544;BME280;48597;49.030;1.822;2023-02-11T13:54:45;102831.88;;;19.91;35.99
62544;BME280;48597;49.030;1.822;2023-02-11T13:59:52;102825.34;;;19.90;36.13
62544;BME280;48597;49.030;1.822;2023-02-11T14:10:54;102811.84;;;19.87;36.05
62544;BME280;48597;49.030;1.822;2023-02-11T14:15:47;102811.00;;;19.87;36.20
62544;BME280;48597;49.030;1.822;2023-02-11T14:23:52;102814.72;;;19.84;36.13
62544;BME280;48597;49.030;1.822;2023-02-11T14:31:37;102821.22;;;19.81;36.16
62544;BME280;48597;49.030;1.822;2023-02-11T14:39:17;102814.28;;;19.78;36.16
62544;BME280;48597;49.030;1.822;2023-02-11T14:41:46;102815.50;;;19.77;36.03
62544;BME280;48597;49.030;1.822;2023-02-11T14:44:19;102808.94;;;19.77;36.02
62544;BME280;48597;49.030;1.822;2023-02-11T14:46:46;102812.22;;;19.75;36.15
62544;BME280;48597;49.030;1.822;2023-02-11T14:49:33;102808.13;;;19.73;36.25
62544;BME280;48597;49.030;1.822;2023-02-11T14:52:03;102811.00;;;19.73;36.17
62544;BME280;48597;49.030;1.822;2023-02-11T14:54:30;102813.03;;;19.72;36.10
62544;BME280;48597;49.030;1.822;2023-02-11T14:59:31;102806.91;;;19.70;36.00
62544;BME280;48597;49.030;1.822;2023-02-11T15:01:56;102806.06;;;19.70;36.16
62544;BME280;48597;49.030;1.822;2023-02-11T15:04:24;102805.66;;;19.68;36.00
62544;BME280;48597;49.030;1.822;2023-02-11T15:06:49;102806.88;;;19.67;35.91
62544;BME280;48597;49.030;1.822;2023-02-11T15:09:15;102806.06;;;19.66;36.02
62544;BME280;48597;49.030;1.822;2023-02-11T15:11:44;102799.50;;;19.66;35.96
62544;BME280;48597;49.030;1.822;2023-02-11T15:14:13;102795.00;;;19.65;35.99
62544;BME280;48597;49.030;1.822;2023-02-11T15:16:41;102790.94;;;19.66;35.98
62544;BME280;48597;49.030;1.822;2023-02-11T15:19:10;102792.16;;;19.65;36.02
62544;BME280;48597;49.030;1.822;2023-02-11T15:21:41;102793.38;;;19.67;35.97
62544;BME280;48597;49.030;1.822;2023-02-11T15:24:28;102793.38;;;19.67;36.07